Time;durP1;ratioP1;P1;durP2;ratioP2;P2;SDS_P1;SDS_P2;PMS_P1;PMS_P2;Temp;Humidity;BMP_temperature;BMP_pressure;BME280_temperature;BME280_humidity;BME280_pressure;Samples;Min_cycle;Max_cycle;Signal;HPM_P1;HPM_P2
2023/05/19 00:00:54;;;;;;;0.60;0.50;;;;;;;11.50;85.99;96731.53;5077946;28;20203;-67
2023/05/19 00:03:21;;;;;;;1.63;0.80;;;;;;;11.51;86.65;96733.19;5077771;28;20211;-67
2023/05/19 00:05:49;;;;;;;0.87;0.70;;;;;;;11.39;86.78;96731.88;5077577;28;20273;-72
2023/05/19 00:08:17;;;;;;;2.43;0.90;;;;;;;11.51;86.54;96730.53;5076938;28;20220;-69
2023/05/19 00:10:44;;;;;;;0.73;0.63;;;;;;;11.48;86.96;96730.03;5074727;28;20223;-68
2023/05/19 00:13:11;;;;;;;1.33;0.90;;;;;;;11.39;86.42;96731.88;5077559;28;20203;-68
2023/05/19 00:15:39;;;;;;;0.77;0.63;;;;;;;11.53;86.27;96722.44;5077483;28;20694;-71
2023/05/19 00:18:07;;;;;;;3.73;1.33;;;;;;;11.45;87.15;96723.25;5077144;28;20223;-71
2023/05/19 00:20:34;;;;;;;6.80;1.47;;;;;;;11.43;85.96;96713.88;5076894;28;20291;-68
2023/05/19 00:23:00;;;;;;;1.40;0.93;;;;;;;11.36;86.75;96719.00;5076991;28;20215;-68
2023/05/19 00:25:27;;;;;;;0.80;0.73;;;;;;;11.49;85.47;96716.66;5077754;28;20203;-68
2023/05/19 00:27:53;;;;;;;0.70;0.70;;;;;;;11.36;86.01;96708.44;5076729;28;20220;-69
2023/05/19 00:30:21;;;;;;;0.80;0.70;;;;;;;11.37;86.70;96707.47;5076644;28;20203;-71
2023/05/19 00:32:49;;;;;;;0.50;0.50;;;;;;;11.38;88.51;96703.84;5077460;28;21157;-71
2023/05/19 00:35:16;;;;;;;4.30;1.60;;;;;;;11.40;87.65;96706.31;5077657;28;20203;-72
2023/05/19 00:37:42;;;;;;;3.00;1.30;;;;;;;11.37;87.62;96704.03;5076791;28;20226;-69
2023/05/19 00:40:10;;;;;;;0.63;0.63;;;;;;;11.22;88.89;96701.25;5076811;28;20206;-71
2023/05/19 00:42:36;;;;;;;2.03;1.37;;;;;;;11.27;88.02;96696.28;5076413;28;20212;-70
2023/05/19 00:45:03;;;;;;;1.50;1.30;;;;;;;11.24;87.08;96698.44;5077774;28;20207;-68
2023/05/19 00:47:30;;;;;;;0.43;0.43;;;;;;;11.23;88.04;96694.97;5076330;28;20227;-69
2023/05/19 00:49:58;;;;;;;1.63;1.00;;;;;;;11.22;87.44;96692.53;5076963;28;20199;-67
2023/05/19 00:52:25;;;;;;;1.20;0.93;;;;;;;11.18;88.56;96693.84;5077376;28;20228;-68
2023/05/19 00:54:53;;;;;;;1.30;0.70;;;;;;;11.23;88.67;96696.81;5077275;28;20660;-68
2023/05/19 00:57:20;;;;;;;1.73;1.07;;;;;;;11.25;88.19;96693.00;5075070;28;20227;-70
2023/05/19 00:59:47;;;;;;;0.87;0.70;;;;;;;11.30;88.17;96690.69;5077124;28;20700;-68
2023/05/19 01:02:14;;;;;;;1.17;1.03;;;;;;;11.27;88.49;96690.19;5077047;28;20238;-70
2023/05/19 01:04:42;;;;;;;1.03;0.70;;;;;;;11.28;89.51;96691.84;5076462;28;20203;-72
2023/05/19 01:07:11;;;;;;;2.63;1.37;;;;;;;11.23;88.99;96689.72;5076845;28;21089;-68
2023/05/19 01:09:37;;;;;;;1.00;0.50;;;;;;;11.14;89.57;96690.72;5075660;28;20203;-71
2023/05/19 01:12:04;;;;;;;0.90;0.90;;;;;;;11.26;88.87;96686.72;5076732;28;20583;-68
2023/05/19 01:14:31;;;;;;;3.67;1.63;;;;;;;11.25;88.91;96685.09;5076862;28;20203;-68
2023/05/19 01:17:04;;;;;;;4.57;1.90;;;;;;;11.34;88.33;96678.78;5076500;28;20236;-70
2023/05/19 01:19:50;;;;;;;1.17;0.90;;;;;;;11.21;89.08;96680.31;5075878;28;20322;-68
2023/05/19 01:22:41;;;;;;;0.67;0.63;;;;;;;11.26;88.89;96681.44;5076327;28;20203;-70
2023/05/19 01:25:32;;;;;;;2.80;1.00;;;;;;;11.19;89.73;96683.13;5076645;28;20245;-69
2023/05/19 01:28:30;;;;;;;12.80;1.10;;;;;;;11.35;89.41;96682.25;5075414;28;20219;-67
2023/05/19 01:31:00;;;;;;;0.70;0.70;;;;;;;11.32;90.43;96678.13;5076279;28;20232;-71
2023/05/19 01:33:29;;;;;;;4.13;1.57;;;;;;;11.32;91.98;96680.75;5076621;28;20245;-71
2023/05/19 01:35:58;;;;;;;1.30;0.40;;;;;;;11.23;92.23;96683.63;5076351;28;20199;-68
2023/05/19 01:38:25;;;;;;;1.20;1.13;;;;;;;11.20;93.15;96679.50;5075940;28;20227;-68
2023/05/19 01:40:52;;;;;;;4.43;1.37;;;;;;;11.12;94.29;96681.34;5076488;28;20667;-71
2023/05/19 01:43:21;;;;;;;3.07;0.93;;;;;;;11.10;92.88;96689.41;5075995;28;21499;-71
2023/05/19 01:45:48;;;;;;;0.60;0.60;;;;;;;11.05;92.65;96685.66;5076116;28;20250;-71
2023/05/19 01:48:17;;;;;;;1.10;1.00;;;;;;;11.12;91.88;96692.69;5076062;28;21207;-71
2023/05/19 01:50:44;;;;;;;3.43;0.80;;;;;;;11.11;91.52;96690.22;5076367;28;20579;-68
2023/05/19 01:53:11;;;;;;;1.80;1.17;;;;;;;11.13;91.70;96689.06;5076188;28;20212;-68
2023/05/19 01:55:44;;;;;;;2.93;1.07;;;;;;;11.13;91.39;96688.25;5076260;28;20225;-67
2023/05/19 01:58:18;;;;;;;0.50;0.50;;;;;;;11.09;91.50;96687.75;5075976;28;20224;-68
2023/05/19 02:00:52;;;;;;;1.40;1.07;;;;;;;11.13;91.89;96688.25;5075312;28;20272;-70
2023/05/19 02:03:31;;;;;;;0.73;0.73;;;;;;;11.11;91.89;96685.81;5076009;28;20204;-68
2023/05/19 02:06:07;;;;;;;2.87;0.93;;;;;;;11.13;91.97;96696.97;5076408;28;20219;-68
2023/05/19 02:08:42;;;;;;;1.00;1.00;;;;;;;11.12;92.58;96692.69;5075351;28;20218;-71
2023/05/19 02:11:27;;;;;;;1.27;0.80;;;;;;;11.15;92.74;96695.00;5078128;28;20707;-70
2023/05/19 02:13:56;;;;;;;1.30;0.80;;;;;;;11.14;95.79;96682.81;5079819;28;20207;-67
2023/05/19 02:16:28;;;;;;;0.70;0.60;;;;;;;11.03;95.03;96687.63;5079668;28;20243;-69
2023/05/19 02:18:58;;;;;;;1.07;0.80;;;;;;;11.03;93.75;96683.16;5078872;28;20199;-68
2023/05/19 02:21:24;;;;;;;1.80;0.73;;;;;;;10.87;94.15;96676.28;5077008;28;20228;-67
2023/05/19 02:23:51;;;;;;;0.60;0.60;;;;;;;10.84;93.24;96676.63;5079563;28;20204;-70
2023/05/19 02:26:17;;;;;;;1.37;0.90;;;;;;;10.87;92.89;96681.56;5079844;28;20200;-68
2023/05/19 02:28:44;;;;;;;6.67;1.30;;;;;;;10.95;93.24;96682.38;5079182;28;20219;-67
2023/05/19 02:31:10;;;;;;;1.10;0.70;;;;;;;10.88;92.92;96680.56;5079836;28;20223;-68
2023/05/19 02:33:37;;;;;;;0.90;0.80;;;;;;;10.99;91.93;96671.31;5079430;28;20200;-67
2023/05/19 02:36:06;;;;;;;1.00;0.97;;;;;;;11.07;91.62;96673.94;5079401;28;20645;-68
2023/05/19 02:38:33;;;;;;;3.13;1.27;;;;;;;11.03;94.49;96672.59;5079077;28;20215;-67
2023/05/19 02:40:59;;;;;;;3.07;1.17;;;;;;;10.97;94.12;96664.56;5079609;28;20204;-67
2023/05/19 02:43:26;;;;;;;0.70;0.60;;;;;;;11.05;93.99;96662.72;5079051;28;20702;-70
2023/05/19 02:45:52;;;;;;;1.83;1.23;;;;;;;10.98;95.56;96664.41;5079508;28;20204;-71
2023/05/19 02:48:18;;;;;;;1.40;0.73;;;;;;;10.90;94.86;96665.41;5078587;28;20239;-68
2023/05/19 02:50:45;;;;;;;0.70;0.70;;;;;;;10.90;94.33;96662.78;5078535;28;20207;-70
2023/05/19 02:53:13;;;;;;;1.10;0.80;;;;;;;11.02;95.31;96660.44;5079483;28;20821;-68
2023/05/19 02:55:39;;;;;;;1.17;0.77;;;;;;;10.94;95.73;96657.81;5079429;28;20201;-67
2023/05/19 02:58:06;;;;;;;2.97;0.73;;;;;;;10.97;95.42;96662.75;5078051;28;20894;-67
2023/05/19 03:00:32;;;;;;;2.43;1.23;;;;;;;10.86;97.35;96661.44;5079507;28;20210;-68
2023/05/19 03:03:01;;;;;;;2.93;1.53;;;;;;;10.97;96.82;96652.22;5079110;28;20206;-67
2023/05/19 03:05:27;;;;;;;2.27;1.37;;;;;;;10.85;96.61;96657.19;5078555;28;20196;-68
2023/05/19 03:07:54;;;;;;;1.87;0.77;;;;;;;10.97;96.48;96660.13;5078197;28;20227;-68
2023/05/19 03:10:22;;;;;;;1.13;1.07;;;;;;;10.97;96.97;96651.38;5079532;28;20243;-68
2023/05/19 03:12:48;;;;;;;0.70;0.70;;;;;;;10.82;96.68;96647.81;5078983;28;20216;-70
2023/05/19 03:15:15;;;;;;;0.60;0.60;;;;;;;10.88;96.04;96646.31;5078116;28;20214;-72
2023/05/19 03:17:42;;;;;;;1.67;1.10;;;;;;;10.84;95.91;96650.28;5078021;28;20897;-70
2023/05/19 03:20:10;;;;;;;1.63;0.73;;;;;;;10.86;97.07;96648.28;5078167;28;20210;-67
2023/05/19 03:22:36;;;;;;;2.03;1.17;;;;;;;10.87;96.25;96649.91;5078393;28;20672;-67
2023/05/19 03:25:03;;;;;;;2.77;1.03;;;;;;;10.85;97.72;96644.00;5078944;28;20203;-68
2023/05/19 03:27:31;;;;;;;1.13;0.93;;;;;;;10.70;99.12;96643.03;5078330;28;20227;-69
2023/05/19 03:29:57;;;;;;;3.90;1.33;;;;;;;10.63;98.36;96647.34;5078175;28;20222;-67
2023/05/19 03:32:24;;;;;;;0.80;0.80;;;;;;;10.53;98.54;96636.97;5078389;28;20598;-68
2023/05/19 03:34:50;;;;;;;1.63;1.00;;;;;;;10.56;98.16;96638.47;5078818;28;20196;-67
2023/05/19 03:37:17;;;;;;;1.27;1.10;;;;;;;10.62;98.25;96645.72;5077700;28;20593;-69
2023/05/19 03:39:43;;;;;;;1.90;1.23;;;;;;;10.53;98.37;96644.06;5077947;28;20207;-68
2023/05/19 03:42:10;;;;;;;2.20;1.10;;;;;;;10.55;99.38;96639.44;5078825;28;20200;-68
2023/05/19 03:44:38;;;;;;;1.80;1.10;;;;;;;10.67;99.14;96643.41;5078016;28;20204;-71
2023/05/19 03:47:05;;;;;;;2.17;1.23;;;;;;;10.57;99.89;96643.56;5077848;28;20228;-68
2023/05/19 03:49:31;;;;;;;2.33;1.20;;;;;;;10.51;99.32;96640.78;5077512;28;20200;-69
2023/05/19 03:51:58;;;;;;;2.20;1.40;;;;;;;10.38;99.23;96648.38;5078219;28;20227;-67
2023/05/19 03:54:25;;;;;;;2.77;0.87;;;;;;;10.36;99.03;96639.78;5078049;28;20215;-71
2023/05/19 03:56:51;;;;;;;0.70;0.70;;;;;;;10.20;100.00;96645.06;5077721;28;20594;-69
2023/05/19 03:59:17;;;;;;;0.77;0.77;;;;;;;10.27;100.00;96646.03;5077280;28;20203;-72
2023/05/19 04:01:46;;;;;;;1.33;1.03;;;;;;;10.32;100.00;96651.66;5077531;28;20199;-69
2023/05/19 04:04:12;;;;;;;8.83;1.03;;;;;;;10.31;100.00;96659.72;5078035;28;20286;-67
2023/05/19 04:06:39;;;;;;;4.40;1.67;;;;;;;10.29;100.00;96654.63;5077517;28;20227;-67
2023/05/19 04:09:12;;;;;;;8.73;1.20;;;;;;;10.44;100.00;96655.59;5076675;28;20216;-70
2023/05/19 04:11:39;;;;;;;1.73;1.33;;;;;;;10.47;100.00;96655.28;5077453;28;20220;-67
2023/05/19 04:14:05;;;;;;;4.03;1.07;;;;;;;10.43;100.00;96651.31;5078289;28;20208;-69
2023/05/19 04:16:32;;;;;;;1.53;1.00;;;;;;;10.39;100.00;96655.28;5076218;28;20224;-68
2023/05/19 04:19:00;;;;;;;0.90;0.80;;;;;;;10.53;100.00;96647.53;5076519;28;20200;-72
2023/05/19 04:21:26;;;;;;;1.43;0.97;;;;;;;10.57;100.00;96648.81;5078254;28;20208;-68
2023/05/19 04:23:53;;;;;;;1.57;1.40;;;;;;;10.60;100.00;96647.66;5077282;28;20200;-70
2023/05/19 04:26:21;;;;;;;0.57;0.57;;;;;;;10.60;100.00;96650.31;5077025;28;20208;-69
2023/05/19 04:28:47;;;;;;;1.60;1.07;;;;;;;10.80;100.00;96643.69;5076633;28;20323;-72
2023/05/19 04:31:14;;;;;;;2.30;1.70;;;;;;;10.81;100.00;96640.88;5077687;28;20217;-70
2023/05/19 04:33:41;;;;;;;2.33;1.20;;;;;;;10.76;100.00;96645.03;5076231;28;20227;-71
2023/05/19 04:36:10;;;;;;;1.37;0.70;;;;;;;10.88;100.00;96635.75;5077797;28;20604;-69
2023/05/19 04:38:38;;;;;;;0.83;0.53;;;;;;;10.91;100.00;96640.69;5076652;28;20759;-69
2023/05/19 04:41:08;;;;;;;1.53;1.23;;;;;;;11.04;100.00;96642.63;5076890;28;20211;-71
2023/05/19 04:43:35;;;;;;;2.13;1.33;;;;;;;11.09;100.00;96639.47;5077118;28;20195;-73
2023/05/19 04:46:04;;;;;;;1.60;1.27;;;;;;;11.22;100.00;96635.28;5077029;28;20664;-70
2023/05/19 04:48:32;;;;;;;1.90;1.27;;;;;;;11.25;100.00;96645.53;5077035;28;20290;-71
2023/05/19 04:51:00;;;;;;;1.40;1.00;;;;;;;11.40;99.29;96649.06;5076677;28;20214;-72
2023/05/19 04:53:28;;;;;;;1.90;1.47;;;;;;;11.43;98.37;96648.75;5076933;28;20637;-70
2023/05/19 04:55:55;;;;;;;1.47;1.13;;;;;;;11.29;100.00;96657.38;5074770;28;20215;-70
2023/05/19 04:58:24;;;;;;;1.37;1.03;;;;;;;11.43;98.30;96656.66;5075940;28;20251;-70
2023/05/19 05:00:51;;;;;;;1.63;1.50;;;;;;;11.32;97.84;96646.47;5076057;28;20684;-69
2023/05/19 05:03:17;;;;;;;2.63;1.00;;;;;;;11.31;98.83;96647.47;5077070;28;20200;-67
2023/05/19 05:05:44;;;;;;;4.17;0.87;;;;;;;11.35;99.09;96651.41;5076037;28;20676;-68
2023/05/19 05:08:13;;;;;;;4.43;1.90;;;;;;;11.52;99.01;96646.91;5075706;28;20224;-72
2023/05/19 05:10:42;;;;;;;1.50;1.00;;;;;;;11.52;98.87;96647.75;5075339;28;20210;-73
2023/05/19 05:13:09;;;;;;;1.43;0.90;;;;;;;11.50;98.90;96647.06;5076211;28;20607;-69
2023/05/19 05:15:36;;;;;;;1.77;1.10;;;;;;;11.47;97.75;96639.47;5076156;28;20208;-73
2023/05/19 05:18:03;;;;;;;0.60;0.60;;;;;;;11.40;97.71;96648.25;5075274;28;20729;-70
2023/05/19 05:20:31;;;;;;;1.93;0.70;;;;;;;11.53;99.53;96641.44;5075778;28;20575;-71
2023/05/19 05:22:58;;;;;;;2.40;0.97;;;;;;;11.27;98.34;96645.34;5074253;28;20203;-72
2023/05/19 05:25:25;;;;;;;1.43;0.83;;;;;;;11.47;98.37;96643.91;5072862;28;21119;-74
2023/05/19 05:27:52;;;;;;;3.03;1.23;;;;;;;11.63;97.77;96644.69;5074558;28;20224;-73
2023/05/19 05:30:19;;;;;;;2.60;1.57;;;;;;;11.69;98.24;96644.00;5076927;28;20203;-69
2023/05/19 05:32:46;;;;;;;3.17;1.20;;;;;;;11.70;98.31;96640.38;5076108;28;20875;-69
2023/05/19 05:35:12;;;;;;;2.80;1.23;;;;;;;11.75;97.53;96643.31;5074880;28;20220;-66
2023/05/19 05:37:39;;;;;;;1.43;0.97;;;;;;;11.60;97.82;96640.59;5075008;28;20227;-68
2023/05/19 05:40:06;;;;;;;0.97;0.80;;;;;;;11.73;96.70;96638.19;5075410;28;20208;-66
2023/05/19 05:42:33;;;;;;;1.90;1.53;;;;;;;11.83;97.67;96635.34;5075552;28;20200;-66
2023/05/19 05:45:01;;;;;;;0.97;0.90;;;;;;;12.23;97.08;96633.22;5080268;28;20200;-65
2023/05/19 05:47:28;;;;;;;2.27;1.13;;;;;;;12.36;94.44;96631.63;5079135;28;20245;-67
2023/05/19 05:49:55;;;;;;;1.63;1.20;;;;;;;12.40;93.87;96630.28;5079663;28;20290;-67
2023/05/19 05:52:25;;;;;;;1.13;0.90;;;;;;;12.32;92.73;96633.00;5080320;28;20222;-65
2023/05/19 05:54:52;;;;;;;1.30;1.20;;;;;;;12.34;93.45;96636.25;5079583;28;20195;-66
2023/05/19 05:57:19;;;;;;;7.13;1.00;;;;;;;12.28;93.83;96634.34;5079319;28;20215;-65
2023/05/19 05:59:46;;;;;;;3.43;1.60;;;;;;;12.08;95.08;96644.72;5079908;28;20211;-66
2023/05/19 06:02:14;;;;;;;1.47;1.10;;;;;;;12.16;94.30;96639.41;5079647;28;20210;-66
2023/05/19 06:04:40;;;;;;;3.13;1.30;;;;;;;12.02;94.46;96650.75;5079492;28;20980;-66
2023/05/19 06:07:07;;;;;;;5.53;1.23;;;;;;;12.05;95.37;96645.91;5079874;28;20314;-68
2023/05/19 06:09:33;;;;;;;2.33;1.10;;;;;;;11.95;95.92;96639.22;5078334;28;20204;-65
2023/05/19 06:12:00;;;;;;;3.70;2.07;;;;;;;12.02;94.68;96648.09;5078785;28;20204;-65
2023/05/19 06:14:26;;;;;;;3.17;1.20;;;;;;;12.02;95.18;96642.81;5076963;28;20208;-68
2023/05/19 06:16:53;;;;;;;3.07;1.43;;;;;;;12.04;95.63;96644.28;5077567;28;20220;-67
2023/05/19 06:19:23;;;;;;;1.87;1.37;;;;;;;12.22;94.62;96645.63;5076316;28;20200;-68
2023/05/19 06:21:50;;;;;;;2.20;1.10;;;;;;;12.26;94.06;96635.53;5077046;28;20287;-65
2023/05/19 06:24:16;;;;;;;4.37;1.73;;;;;;;12.41;93.30;96642.50;5077428;28;20193;-66
2023/05/19 06:26:43;;;;;;;9.87;1.13;;;;;;;12.57;91.78;96642.34;5076856;28;20215;-66
2023/05/19 06:29:10;;;;;;;1.70;1.13;;;;;;;12.73;91.31;96631.63;5077674;28;20233;-68
2023/05/19 06:31:36;;;;;;;2.07;1.40;;;;;;;12.71;91.57;96633.59;5077789;28;20200;-66
2023/05/19 06:34:03;;;;;;;2.60;1.83;;;;;;;12.71;92.37;96640.72;5078237;28;20224;-68
2023/05/19 06:36:31;;;;;;;2.07;1.67;;;;;;;12.55;92.33;96633.78;5077508;28;20231;-68
2023/05/19 06:38:57;;;;;;;1.37;1.27;;;;;;;12.58;91.13;96633.41;5077369;28;20668;-68
2023/05/19 06:41:24;;;;;;;2.63;1.33;;;;;;;12.70;91.96;96631.97;5078195;28;20544;-66
2023/05/19 06:43:50;;;;;;;2.40;1.00;;;;;;;12.86;91.86;96632.66;5077024;28;20240;-67
2023/05/19 06:46:16;;;;;;;1.98;0.95;;;;;;;13.10;92.23;96634.22;5077850;28;20204;-68
2023/05/19 06:48:43;;;;;;;2.40;1.30;;;;;;;12.80;89.87;96649.22;5077737;28;20280;-68
2023/05/19 06:51:10;;;;;;;11.20;1.37;;;;;;;12.78;90.10;96645.94;5077509;28;21010;-68
2023/05/19 06:53:37;;;;;;;1.73;1.53;;;;;;;13.08;91.84;96642.31;5078178;28;20223;-68
2023/05/19 06:56:04;;;;;;;1.77;1.57;;;;;;;13.24;92.13;96639.50;5075913;28;20550;-69
2023/05/19 06:58:31;;;;;;;2.60;1.52;;;;;;;13.35;89.97;96640.88;5077164;28;20212;-68
2023/05/19 07:00:57;;;;;;;1.30;1.20;;;;;;;13.25;86.81;96643.81;5078155;28;20199;-69
2023/05/19 07:03:24;;;;;;;2.03;1.38;;;;;;;13.22;88.30;96633.56;5078752;28;20196;-66
2023/05/19 07:05:51;;;;;;;1.17;1.00;;;;;;;13.53;87.68;96636.81;5075288;28;20207;-67
2023/05/19 07:08:17;;;;;;;1.75;1.20;;;;;;;13.51;88.00;96644.94;5072538;28;20232;-67
2023/05/19 07:10:45;;;;;;;2.30;1.70;;;;;;;13.51;88.72;96644.94;5077848;28;20214;-69
2023/05/19 07:13:12;;;;;;;3.73;1.60;;;;;;;13.55;88.89;96645.41;5077764;28;20742;-69
2023/05/19 07:15:38;;;;;;;2.20;1.17;;;;;;;13.50;87.13;96632.75;5076591;28;20215;-68
2023/05/19 07:18:05;;;;;;;3.20;1.30;;;;;;;13.68;88.94;96634.97;5076130;28;20223;-65
2023/05/19 07:20:31;;;;;;;2.95;1.48;;;;;;;13.55;87.51;96629.53;5077185;28;20218;-67
2023/05/19 07:22:58;;;;;;;4.22;1.00;;;;;;;13.64;88.48;96633.69;5076467;28;20616;-65
2023/05/19 07:25:25;;;;;;;5.47;1.77;;;;;;;13.76;89.17;96632.19;5076880;28;20209;-66
2023/05/19 07:27:53;;;;;;;3.47;0.95;;;;;;;13.78;85.33;96633.66;5075460;28;20226;-68
2023/05/19 07:30:20;;;;;;;2.22;1.23;;;;;;;13.79;84.83;96629.19;5076906;28;20200;-68
2023/05/19 07:32:46;;;;;;;4.65;1.20;;;;;;;13.57;83.88;96628.31;5075889;28;20228;-68
2023/05/19 07:35:13;;;;;;;1.50;1.30;;;;;;;13.92;83.78;96631.97;5077753;28;20212;-68
2023/05/19 07:37:39;;;;;;;2.50;1.63;;;;;;;14.34;86.37;96617.75;5075941;28;20219;-69
2023/05/19 07:40:08;;;;;;;1.42;1.20;;;;;;;14.42;83.63;96624.75;5077086;28;20204;-67
2023/05/19 07:42:34;;;;;;;1.60;1.30;;;;;;;14.51;86.26;96628.91;5076480;28;20239;-66
2023/05/19 07:45:02;;;;;;;1.35;1.10;;;;;;;14.31;85.83;96628.75;5077742;28;20207;-68
2023/05/19 07:47:29;;;;;;;2.25;1.23;;;;;;;14.33;85.12;96632.03;5076790;28;20787;-65
2023/05/19 07:49:56;;;;;;;3.17;1.52;;;;;;;14.16;88.04;96632.47;5077014;28;20200;-68
2023/05/19 07:52:22;;;;;;;2.67;1.48;;;;;;;14.20;88.11;96631.06;5077432;28;20200;-65
2023/05/19 07:54:49;;;;;;;2.67;1.42;;;;;;;14.16;84.89;96627.16;5077247;28;20223;-69
2023/05/19 07:57:15;;;;;;;1.55;1.20;;;;;;;14.37;83.54;96632.44;5076316;28;20227;-67
2023/05/19 07:59:42;;;;;;;3.05;1.48;;;;;;;14.25;84.34;96623.38;5075817;28;20211;-66
2023/05/19 08:02:09;;;;;;;1.80;1.42;;;;;;;14.05;84.02;96627.63;5077140;28;20208;-69
2023/05/19 08:04:36;;;;;;;2.38;1.33;;;;;;;13.98;83.21;96622.25;5076817;28;20208;-68
2023/05/19 08:07:03;;;;;;;2.25;1.35;;;;;;;14.01;83.47;96613.97;5076393;28;20742;-69
2023/05/19 08:09:29;;;;;;;1.08;0.90;;;;;;;14.06;81.46;96630.13;5076631;28;20238;-69
2023/05/19 08:11:56;;;;;;;1.65;1.52;;;;;;;13.90;82.31;96629.53;5075897;28;20268;-68
2023/05/19 08:14:23;;;;;;;2.75;1.52;;;;;;;13.81;82.47;96624.50;5075986;28;20208;-69
2023/05/19 08:16:50;;;;;;;5.03;1.63;;;;;;;13.93;82.97;96618.53;5075912;28;20675;-70
2023/05/19 08:19:18;;;;;;;5.38;1.10;;;;;;;14.03;82.02;96619.06;5075773;28;20207;-67
2023/05/19 08:21:44;;;;;;;2.05;1.30;;;;;;;13.97;81.58;96617.16;5075743;28;20204;-68
2023/05/19 08:24:11;;;;;;;3.20;1.55;;;;;;;14.01;82.93;96611.31;5075720;28;20211;-70
2023/05/19 08:26:37;;;;;;;1.85;1.27;;;;;;;14.11;81.06;96621.63;5076915;28;20272;-68
2023/05/19 08:29:04;;;;;;;2.08;1.15;;;;;;;14.09;82.73;96616.50;5075311;28;20696;-68
2023/05/19 08:31:31;;;;;;;2.28;1.30;;;;;;;14.21;83.01;96622.13;5075174;28;20196;-69
2023/05/19 08:33:57;;;;;;;4.43;1.30;;;;;;;14.09;85.92;96619.16;5077002;28;21186;-67
2023/05/19 08:36:26;;;;;;;4.75;1.98;;;;;;;14.13;84.53;96614.31;5074983;28;20584;-69
2023/05/19 08:38:52;;;;;;;3.03;1.55;;;;;;;13.95;83.03;96613.06;5074185;28;20196;-68
2023/05/19 08:41:20;;;;;;;2.30;1.38;;;;;;;13.66;83.88;96615.81;5076742;28;20200;-68
2023/05/19 08:43:47;;;;;;;2.80;1.58;;;;;;;13.53;83.03;96621.75;5075734;28;20207;-68
2023/05/19 08:46:15;;;;;;;3.20;1.40;;;;;;;13.37;84.56;96630.94;5074895;28;21123;-68
2023/05/19 08:48:43;;;;;;;4.03;1.48;;;;;;;13.54;87.40;96615.47;5075393;28;20562;-69
2023/05/19 08:51:17;;;;;;;2.75;1.67;;;;;;;13.60;85.53;96624.50;5075784;28;20205;-67
2023/05/19 08:53:50;;;;;;;2.80;1.75;;;;;;;13.68;83.70;96619.91;5075418;28;20253;-68
2023/05/19 08:56:21;;;;;;;2.38;1.35;;;;;;;13.57;84.76;96614.28;5076012;28;20199;-69
2023/05/19 08:58:49;;;;;;;1.55;1.20;;;;;;;13.54;86.35;96619.94;5074328;28;20660;-68
2023/05/19 09:01:16;;;;;;;2.80;1.45;;;;;;;13.65;88.10;96620.25;5075354;28;20223;-68
2023/05/19 09:03:44;;;;;;;3.03;1.35;;;;;;;13.52;88.30;96620.13;5075634;28;20196;-68
2023/05/19 09:06:12;;;;;;;6.03;1.88;;;;;;;13.45;89.30;96621.88;5075793;28;20215;-69
2023/05/19 09:08:39;;;;;;;2.97;0.90;;;;;;;13.39;86.13;96612.03;5074742;28;20196;-68
2023/05/19 09:11:07;;;;;;;2.05;1.52;;;;;;;13.42;86.16;96606.34;5075018;28;20208;-68
2023/05/19 09:13:33;;;;;;;1.58;1.10;;;;;;;13.50;85.74;96622.16;5074334;28;20216;-68
2023/05/19 09:16:00;;;;;;;4.05;1.70;;;;;;;13.65;85.21;96609.69;5074840;28;20213;-69
2023/05/19 09:18:27;;;;;;;1.92;1.70;;;;;;;13.79;83.10;96605.34;5074494;28;20219;-67
2023/05/19 09:20:59;;;;;;;1.75;1.10;;;;;;;13.85;82.20;96610.72;5075989;28;20200;-68
2023/05/19 09:23:28;;;;;;;2.28;1.40;;;;;;;14.26;80.79;96609.13;5075494;28;20962;-68
2023/05/19 09:25:56;;;;;;;2.97;1.40;;;;;;;14.63;78.92;96614.13;5075213;28;21005;-68
2023/05/19 09:28:29;;;;;;;5.30;1.60;;;;;;;15.00;79.59;96610.09;5075483;28;20219;-70
2023/05/19 09:31:00;;;;;;;1.15;1.05;;;;;;;15.47;80.14;96610.97;5074394;28;20202;-68
2023/05/19 09:33:27;;;;;;;5.65;1.50;;;;;;;15.73;77.81;96602.31;5075036;28;20363;-68
2023/05/19 09:35:54;;;;;;;3.38;1.52;;;;;;;15.49;74.73;96597.50;5075744;28;20526;-68
2023/05/19 09:38:21;;;;;;;1.50;1.08;;;;;;;15.67;71.36;96600.44;5075600;28;20266;-68
2023/05/19 09:40:48;;;;;;;2.53;1.50;;;;;;;15.42;71.26;96597.47;5075223;28;20204;-69
2023/05/19 09:43:15;;;;;;;1.45;1.13;;;;;;;15.21;72.36;96599.44;5074239;28;20283;-69
2023/05/19 09:45:43;;;;;;;2.42;0.90;;;;;;;15.11;72.57;96600.75;5075077;28;20195;-69
2023/05/19 09:48:09;;;;;;;1.80;1.45;;;;;;;14.69;71.48;96595.59;5074793;28;20220;-68
2023/05/19 09:50:37;;;;;;;2.42;1.45;;;;;;;14.65;73.99;96591.72;5074264;28;20223;-69
2023/05/19 09:53:03;;;;;;;2.10;1.63;;;;;;;15.17;74.61;96592.00;5073944;28;20211;-69
2023/05/19 09:55:31;;;;;;;3.95;1.23;;;;;;;15.46;77.13;96584.63;5075476;28;20696;-68
2023/05/19 09:57:58;;;;;;;1.75;1.08;;;;;;;15.27;71.95;96591.50;5073639;28;20308;-68
2023/05/19 10:00:27;;;;;;;3.20;1.75;;;;;;;14.98;73.49;96590.91;5074961;28;20200;-68
2023/05/19 10:02:56;;;;;;;1.42;1.08;;;;;;;15.46;72.78;96582.78;5074941;28;20647;-68
2023/05/19 10:05:23;;;;;;;3.45;1.58;;;;;;;15.46;73.22;96589.94;5074669;28;20196;-69
2023/05/19 10:07:51;;;;;;;2.17;1.67;;;;;;;15.23;75.22;96592.09;5074616;28;20223;-70
2023/05/19 10:10:19;;;;;;;2.38;1.13;;;;;;;14.95;75.75;96588.63;5075310;28;20211;-68
2023/05/19 10:12:47;;;;;;;1.52;1.40;;;;;;;14.68;74.92;96586.81;5074601;28;20686;-69
2023/05/19 10:15:16;;;;;;;2.40;1.70;;;;;;;14.65;75.77;96589.88;5074719;28;20228;-68
2023/05/19 10:17:44;;;;;;;5.45;2.15;;;;;;;14.37;75.00;96590.88;5074270;28;20224;-68
2023/05/19 10:20:13;;;;;;;2.65;1.27;;;;;;;14.41;74.29;96588.63;5073978;28;21191;-68
2023/05/19 10:22:41;;;;;;;2.38;1.50;;;;;;;14.13;76.31;96588.59;5075274;28;20291;-68
2023/05/19 10:25:09;;;;;;;2.83;1.60;;;;;;;14.29;77.26;96580.38;5074945;28;20211;-69
2023/05/19 10:27:38;;;;;;;2.78;1.35;;;;;;;14.33;78.57;96584.31;5073895;28;20770;-69
2023/05/19 10:30:09;;;;;;;3.25;1.77;;;;;;;14.44;78.73;96582.97;5075064;28;20207;-68
2023/05/19 10:32:38;;;;;;;2.30;1.27;;;;;;;14.28;79.76;96596.47;5078193;28;20214;-68
2023/05/19 10:35:32;;;;;;;3.92;1.90;;;;;;;14.42;79.77;96583.16;5077088;28;20965;-68
2023/05/19 10:38:07;;;;;;;2.95;1.38;;;;;;;14.34;80.15;96585.13;5076801;28;20227;-68
2023/05/19 10:40:37;;;;;;;3.42;2.13;;;;;;;14.58;82.00;96592.66;5078055;28;20563;-68
2023/05/19 10:43:15;;;;;;;2.90;1.92;;;;;;;14.77;80.18;96587.50;5078734;28;20228;-68
2023/05/19 10:45:47;;;;;;;4.80;1.58;;;;;;;14.86;80.17;96592.44;5077558;28;20207;-69
2023/05/19 10:48:14;;;;;;;3.03;1.55;;;;;;;14.62;77.47;96594.72;5076949;28;20227;-68
2023/05/19 10:50:43;;;;;;;2.58;1.17;;;;;;;14.71;79.19;96593.56;5078077;28;20203;-68
2023/05/19 10:53:16;;;;;;;4.00;2.20;;;;;;;14.95;79.53;96599.22;5078647;28;20222;-69
2023/05/19 10:55:50;;;;;;;1.80;1.58;;;;;;;14.91;81.08;96598.00;5077260;28;20224;-68
2023/05/19 10:58:37;;;;;;;4.82;1.80;;;;;;;14.78;76.94;96595.25;5076975;28;20376;-68
2023/05/19 11:01:07;;;;;;;3.10;1.85;;;;;;;14.42;78.23;96592.94;5078642;28;20292;-67
2023/05/19 11:03:44;;;;;;;3.95;1.70;;;;;;;14.18;78.23;96591.50;5078762;28;20200;-68
2023/05/19 11:06:36;;;;;;;3.10;1.67;;;;;;;14.14;78.11;96594.72;5077795;28;20284;-68
2023/05/19 11:09:12;;;;;;;2.75;1.88;;;;;;;14.30;78.52;96603.22;5077516;28;20222;-69
2023/05/19 11:11:46;;;;;;;1.48;1.38;;;;;;;14.04;77.98;96600.31;5076182;28;20579;-68
2023/05/19 11:14:15;;;;;;;4.15;2.28;;;;;;;14.16;79.84;96598.00;5076835;28;20226;-68
2023/05/19 11:16:42;;;;;;;2.25;1.35;;;;;;;14.55;80.29;96603.63;5077388;28;20219;-69
2023/05/19 11:19:08;;;;;;;2.70;1.55;;;;;;;14.76;80.05;96605.22;5076545;28;20543;-68
2023/05/19 11:21:47;;;;;;;3.08;1.95;;;;;;;14.70;80.06;96600.72;5077032;28;20209;-69
2023/05/19 11:24:35;;;;;;;2.97;2.05;;;;;;;14.85;78.77;96593.44;5077398;28;20206;-68
2023/05/19 11:27:17;;;;;;;8.32;2.22;;;;;;;15.16;76.78;96593.88;5077330;28;20220;-69
2023/05/19 11:29:44;;;;;;;4.18;2.28;;;;;;;14.97;82.82;96594.56;5077041;28;20206;-68
2023/05/19 11:32:11;;;;;;;4.30;1.50;;;;;;;15.08;77.71;96599.31;5077206;28;20199;-67
2023/05/19 11:34:38;;;;;;;2.38;1.10;;;;;;;15.24;76.75;96588.41;5077072;28;20239;-67
2023/05/19 11:37:06;;;;;;;1.45;1.20;;;;;;;15.55;80.21;96592.22;5077070;28;20219;-67